sensor_id;sensor_type;location;lat;lon;timestamp;P1;durP1;ratioP1;P2;durP2;ratioP2
36995;SDS011;22905;50.340;10.776;2023-02-01T00:02:44;7.68;;;3.40;;
36995;SDS011;22905;50.340;10.776;2023-02-01T00:07:44;6.53;;;3.27;;
36995;SDS011;22905;50.340;10.776;2023-02-01T00:12:48;7.78;;;4.32;;
36995;SDS011;22905;50.340;10.776;2023-02-01T00:17:52;15.27;;;4.22;;
36995;SDS011;22905;50.340;10.776;2023-02-01T00:22:53;5.72;;;4.07;;
36995;SDS011;22905;50.340;10.776;2023-02-01T00:27:53;7.30;;;4.93;;
36995;SDS011;22905;50.340;10.776;2023-02-01T00:32:53;8.05;;;4.35;;
36995;SDS011;22905;50.340;10.776;2023-02-01T00:37:54;22.10;;;6.50;;
36995;SDS011;22905;50.340;10.776;2023-02-01T00:42:54;11.40;;;5.32;;
36995;SDS011;22905;50.340;10.776;2023-02-01T00:47:54;5.47;;;4.32;;
36995;SDS011;22905;50.340;10.776;2023-02-01T00:52:54;5.55;;;2.78;;
36995;SDS011;22905;50.340;10.776;2023-02-01T00:57:55;13.00;;;2.80;;
36995;SDS011;22905;50.340;10.776;2023-02-01T01:02:55;7.20;;;4.38;;
36995;SDS011;22905;50.340;10.776;2023-02-01T01:07:56;4.40;;;2.27;;
36995;SDS011;22905;50.340;10.776;2023-02-01T01:12:56;5.20;;;1.87;;
36995;SDS011;22905;50.340;10.776;2023-02-01T01:17:56;2.63;;;1.40;;
36995;SDS011;22905;50.340;10.776;2023-02-01T01:22:57;3.20;;;1.80;;
36995;SDS011;22905;50.340;10.776;2023-02-01T01:27:57;5.05;;;2.10;;
36995;SDS011;22905;50.340;10.776;2023-02-01T01:32:58;3.30;;;2.15;;
36995;SDS011;22905;50.340;10.776;2023-02-01T01:37:58;5.50;;;2.47;;
36995;SDS011;22905;50.340;10.776;2023-02-01T01:42:59;4.38;;;2.83;;
36995;SDS011;22905;50.340;10.776;2023-02-01T01:53:12;6.15;;;3.08;;
36995;SDS011;22905;50.340;10.776;2023-02-01T01:58:17;6.45;;;3.72;;
36995;SDS011;22905;50.340;10.776;2023-02-01T02:03:20;5.38;;;3.20;;
36995;SDS011;22905;50.340;10.776;2023-02-01T02:08:27;9.10;;;3.38;;
36995;SDS011;22905;50.340;10.776;2023-02-01T02:13:31;13.88;;;4.90;;
36995;SDS011;22905;50.340;10.776;2023-02-01T02:45:04;11.30;;;3.17;;
36995;SDS011;22905;50.340;10.776;2023-02-01T02:50:37;10.13;;;4.32;;
36995;SDS011;22905;50.340;10.776;2023-02-01T02:55:59;10.18;;;5.15;;
36995;SDS011;22905;50.340;10.776;2023-02-01T03:01:20;16.30;;;5.10;;
36995;SDS011;22905;50.340;10.776;2023-02-01T03:06:39;11.90;;;6.18;;
36995;SDS011;22905;50.340;10.776;2023-02-01T03:11:39;12.00;;;4.83;;
36995;SDS011;22905;50.340;10.776;2023-02-01T03:17:01;12.35;;;4.57;;
36995;SDS011;22905;50.340;10.776;2023-02-01T03:22:06;11.23;;;4.88;;
36995;SDS011;22905;50.340;10.776;2023-02-01T03:32:10;9.93;;;4.83;;
36995;SDS011;22905;50.340;10.776;2023-02-01T03:37:12;13.43;;;5.97;;
36995;SDS011;22905;50.340;10.776;2023-02-01T03:42:19;10.80;;;5.45;;
36995;SDS011;22905;50.340;10.776;2023-02-01T03:47:25;14.95;;;5.28;;
36995;SDS011;22905;50.340;10.776;2023-02-01T03:52:28;12.85;;;5.20;;
36995;SDS011;22905;50.340;10.776;2023-02-01T03:57:31;17.15;;;5.07;;
36995;SDS011;22905;50.340;10.776;2023-02-01T04:02:34;13.30;;;4.35;;
36995;SDS011;22905;50.340;10.776;2023-02-01T04:07:34;16.38;;;5.47;;
36995;SDS011;22905;50.340;10.776;2023-02-01T04:12:35;8.63;;;4.40;;
36995;SDS011;22905;50.340;10.776;2023-02-01T04:17:35;15.57;;;5.10;;
36995;SDS011;22905;50.340;10.776;2023-02-01T04:22:35;12.60;;;5.07;;
36995;SDS011;22905;50.340;10.776;2023-02-01T04:27:35;9.85;;;5.47;;
36995;SDS011;22905;50.340;10.776;2023-02-01T04:32:36;21.20;;;9.10;;
36995;SDS011;22905;50.340;10.776;2023-02-01T04:37:37;12.10;;;6.80;;
36995;SDS011;22905;50.340;10.776;2023-02-01T04:42:37;17.80;;;7.57;;
36995;SDS011;22905;50.340;10.776;2023-02-01T04:47:37;23.10;;;6.93;;
36995;SDS011;22905;50.340;10.776;2023-02-01T04:52:38;21.57;;;9.03;;
36995;SDS011;22905;50.340;10.776;2023-02-01T04:57:38;19.75;;;8.90;;
36995;SDS011;22905;50.340;10.776;2023-02-01T05:02:40;11.75;;;6.25;;
36995;SDS011;22905;50.340;10.776;2023-02-01T05:07:40;10.35;;;6.97;;
36995;SDS011;22905;50.340;10.776;2023-02-01T05:12:42;11.30;;;5.13;;
36995;SDS011;22905;50.340;10.776;2023-02-01T05:18:01;13.75;;;6.60;;
36995;SDS011;22905;50.340;10.776;2023-02-01T05:23:01;9.57;;;4.77;;
36995;SDS011;22905;50.340;10.776;2023-02-01T05:28:02;20.20;;;6.50;;
36995;SDS011;22905;50.340;10.776;2023-02-01T05:33:02;15.82;;;4.68;;
36995;SDS011;22905;50.340;10.776;2023-02-01T05:38:03;12.18;;;6.47;;
36995;SDS011;22905;50.340;10.776;2023-02-01T05:43:03;12.75;;;4.35;;
36995;SDS011;22905;50.340;10.776;2023-02-01T05:48:04;11.90;;;5.00;;
36995;SDS011;22905;50.340;10.776;2023-02-01T05:53:04;7.07;;;4.00;;
36995;SDS011;22905;50.340;10.776;2023-02-01T05:58:05;13.23;;;3.72;;
36995;SDS011;22905;50.340;10.776;2023-02-01T06:03:05;13.00;;;3.85;;
36995;SDS011;22905;50.340;10.776;2023-02-01T06:08:06;10.27;;;3.90;;
36995;SDS011;22905;50.340;10.776;2023-02-01T06:13:07;16.95;;;3.85;;
36995;SDS011;22905;50.340;10.776;2023-02-01T06:18:08;10.27;;;3.88;;
36995;SDS011;22905;50.340;10.776;2023-02-01T06:23:08;11.27;;;3.65;;
36995;SDS011;22905;50.340;10.776;2023-02-01T06:28:09;13.10;;;4.35;;
36995;SDS011;22905;50.340;10.776;2023-02-01T06:33:09;16.13;;;5.15;;
36995;SDS011;22905;50.340;10.776;2023-02-01T06:38:10;11.00;;;4.97;;
36995;SDS011;22905;50.340;10.776;2023-02-01T06:43:11;23.42;;;4.18;;
36995;SDS011;22905;50.340;10.776;2023-02-01T06:48:11;18.63;;;3.80;;
36995;SDS011;22905;50.340;10.776;2023-02-01T06:53:11;9.20;;;3.47;;
36995;SDS011;22905;50.340;10.776;2023-02-01T06:58:12;11.65;;;3.40;;
36995;SDS011;22905;50.340;10.776;2023-02-01T07:03:12;17.87;;;4.23;;
36995;SDS011;22905;50.340;10.776;2023-02-01T07:08:12;18.23;;;4.05;;
36995;SDS011;22905;50.340;10.776;2023-02-01T07:13:13;16.92;;;4.80;;
36995;SDS011;22905;50.340;10.776;2023-02-01T07:18:14;12.77;;;3.53;;
36995;SDS011;22905;50.340;10.776;2023-02-01T07:23:15;18.27;;;3.72;;
36995;SDS011;22905;50.340;10.776;2023-02-01T07:28:15;7.25;;;3.08;;
36995;SDS011;22905;50.340;10.776;2023-02-01T07:33:15;24.48;;;5.45;;
36995;SDS011;22905;50.340;10.776;2023-02-01T07:38:17;9.43;;;4.63;;
36995;SDS011;22905;50.340;10.776;2023-02-01T07:43:18;12.98;;;4.13;;
36995;SDS011;22905;50.340;10.776;2023-02-01T07:48:18;15.48;;;3.30;;
36995;SDS011;22905;50.340;10.776;2023-02-01T07:53:19;13.73;;;4.75;;
36995;SDS011;22905;50.340;10.776;2023-02-01T07:58:19;20.58;;;3.85;;
36995;SDS011;22905;50.340;10.776;2023-02-01T08:03:20;11.52;;;3.50;;
36995;SDS011;22905;50.340;10.776;2023-02-01T08:08:20;17.02;;;3.63;;
36995;SDS011;22905;50.340;10.776;2023-02-01T08:13:20;20.20;;;3.72;;
36995;SDS011;22905;50.340;10.776;2023-02-01T08:18:21;12.20;;;5.60;;
36995;SDS011;22905;50.340;10.776;2023-02-01T08:23:21;14.52;;;3.80;;
36995;SDS011;22905;50.340;10.776;2023-02-01T08:28:22;14.00;;;4.05;;
36995;SDS011;22905;50.340;10.776;2023-02-01T08:33:22;18.52;;;7.57;;
36995;SDS011;22905;50.340;10.776;2023-02-01T08:38:23;11.83;;;5.43;;
36995;SDS011;22905;50.340;10.776;2023-02-01T08:43:23;13.07;;;4.30;;
36995;SDS011;22905;50.340;10.776;2023-02-01T08:48:23;8.93;;;3.77;;
36995;SDS011;22905;50.340;10.776;2023-02-01T08:53:24;9.75;;;3.58;;
36995;SDS011;22905;50.340;10.776;2023-02-01T08:58:24;9.45;;;3.30;;
36995;SDS011;22905;50.340;10.776;2023-02-01T09:03:24;9.90;;;3.70;;
36995;SDS011;22905;50.340;10.776;2023-02-01T09:08:25;14.77;;;4.00;;
36995;SDS011;22905;50.340;10.776;2023-02-01T09:13:25;16.27;;;3.70;;
36995;SDS011;22905;50.340;10.776;2023-02-01T09:18:26;10.38;;;2.60;;
36995;SDS011;22905;50.340;10.776;2023-02-01T09:23:26;10.52;;;2.78;;
36995;SDS011;22905;50.340;10.776;2023-02-01T09:28:26;10.07;;;2.65;;
36995;SDS011;22905;50.340;10.776;2023-02-01T09:33:28;18.37;;;4.43;;
36995;SDS011;22905;50.340;10.776;2023-02-01T09:38:29;9.23;;;3.00;;
36995;SDS011;22905;50.340;10.776;2023-02-01T09:43:53;12.85;;;3.38;;
36995;SDS011;22905;50.340;10.776;2023-02-01T09:49:11;17.63;;;2.90;;
36995;SDS011;22905;50.340;10.776;2023-02-01T09:54:16;12.07;;;3.92;;
36995;SDS011;22905;50.340;10.776;2023-02-01T09:59:28;10.73;;;3.10;;
36995;SDS011;22905;50.340;10.776;2023-02-01T10:04:31;13.63;;;4.22;;
36995;SDS011;22905;50.340;10.776;2023-02-01T10:09:44;8.98;;;3.42;;
36995;SDS011;22905;50.340;10.776;2023-02-01T10:25:14;12.75;;;3.17;;
36995;SDS011;22905;50.340;10.776;2023-02-01T10:30:24;10.73;;;3.10;;
36995;SDS011;22905;50.340;10.776;2023-02-01T10:35:28;12.02;;;3.13;;
36995;SDS011;22905;50.340;10.776;2023-02-01T10:40:31;9.93;;;3.60;;
36995;SDS011;22905;50.340;10.776;2023-02-01T10:45:32;14.27;;;3.83;;
36995;SDS011;22905;50.340;10.776;2023-02-01T10:50:34;11.20;;;3.33;;
36995;SDS011;22905;50.340;10.776;2023-02-01T10:55:40;10.68;;;2.92;;
36995;SDS011;22905;50.340;10.776;2023-02-01T11:05:56;14.43;;;3.70;;
36995;SDS011;22905;50.340;10.776;2023-02-01T11:11:00;16.17;;;6.07;;
36995;SDS011;22905;50.340;10.776;2023-02-01T11:16:03;9.52;;;2.72;;
36995;SDS011;22905;50.340;10.776;2023-02-01T11:21:05;12.85;;;4.90;;
36995;SDS011;22905;50.340;10.776;2023-02-01T11:26:13;10.30;;;3.17;;
36995;SDS011;22905;50.340;10.776;2023-02-01T11:31:15;11.40;;;3.85;;
36995;SDS011;22905;50.340;10.776;2023-02-01T11:36:17;14.40;;;4.40;;
36995;SDS011;22905;50.340;10.776;2023-02-01T11:41:26;10.80;;;3.28;;
36995;SDS011;22905;50.340;10.776;2023-02-01T11:46:31;11.43;;;2.78;;
36995;SDS011;22905;50.340;10.776;2023-02-01T11:51:36;13.45;;;3.95;;
36995;SDS011;22905;50.340;10.776;2023-02-01T11:56:46;18.83;;;4.93;;
36995;SDS011;22905;50.340;10.776;2023-02-01T12:07:43;12.18;;;3.75;;
36995;SDS011;22905;50.340;10.776;2023-02-01T12:12:59;14.52;;;2.88;;
36995;SDS011;22905;50.340;10.776;2023-02-01T12:39:38;9.70;;;3.13;;
36995;SDS011;22905;50.340;10.776;2023-02-01T12:44:47;12.55;;;4.25;;
36995;SDS011;22905;50.340;10.776;2023-02-01T12:54:57;22.67;;;3.60;;
36995;SDS011;22905;50.340;10.776;2023-02-01T13:00:13;9.85;;;2.97;;
36995;SDS011;22905;50.340;10.776;2023-02-01T13:05:23;10.90;;;3.40;;
36995;SDS011;22905;50.340;10.776;2023-02-01T13:15:51;20.38;;;4.07;;
36995;SDS011;22905;50.340;10.776;2023-02-01T13:21:07;11.30;;;3.13;;
36995;SDS011;22905;50.340;10.776;2023-02-01T13:26:10;20.95;;;6.13;;
36995;SDS011;22905;50.340;10.776;2023-02-01T13:36:44;10.52;;;2.40;;
36995;SDS011;22905;50.340;10.776;2023-02-01T13:47:03;12.07;;;2.92;;
36995;SDS011;22905;50.340;10.776;2023-02-01T13:57:36;13.07;;;4.22;;
36995;SDS011;22905;50.340;10.776;2023-02-01T14:08:02;22.55;;;5.60;;
36995;SDS011;22905;50.340;10.776;2023-02-01T14:13:05;19.92;;;4.65;;
36995;SDS011;22905;50.340;10.776;2023-02-01T14:23:38;12.50;;;2.83;;
36995;SDS011;22905;50.340;10.776;2023-02-01T14:28:42;9.90;;;3.83;;
36995;SDS011;22905;50.340;10.776;2023-02-01T14:33:45;10.88;;;5.13;;
36995;SDS011;22905;50.340;10.776;2023-02-01T14:38:49;10.23;;;3.83;;
36995;SDS011;22905;50.340;10.776;2023-02-01T14:43:50;13.07;;;4.25;;
36995;SDS011;22905;50.340;10.776;2023-02-01T14:49:11;9.65;;;4.65;;
36995;SDS011;22905;50.340;10.776;2023-02-01T14:54:12;15.73;;;3.60;;
36995;SDS011;22905;50.340;10.776;2023-02-01T14:59:13;22.33;;;6.22;;
36995;SDS011;22905;50.340;10.776;2023-02-01T15:09:19;19.37;;;4.57;;
36995;SDS011;22905;50.340;10.776;2023-02-01T15:14:23;16.15;;;5.93;;
36995;SDS011;22905;50.340;10.776;2023-02-01T15:19:25;8.27;;;3.28;;
36995;SDS011;22905;50.340;10.776;2023-02-01T15:29:28;10.82;;;3.42;;
36995;SDS011;22905;50.340;10.776;2023-02-01T15:34:45;18.08;;;4.40;;
36995;SDS011;22905;50.340;10.776;2023-02-01T15:45:18;16.08;;;4.15;;
36995;SDS011;22905;50.340;10.776;2023-02-01T15:50:21;19.30;;;6.90;;
36995;SDS011;22905;50.340;10.776;2023-02-01T16:00:41;15.18;;;5.97;;
36995;SDS011;22905;50.340;10.776;2023-02-01T16:05:43;15.05;;;4.65;;
36995;SDS011;22905;50.340;10.776;2023-02-01T16:10:45;16.70;;;5.60;;
36995;SDS011;22905;50.340;10.776;2023-02-01T16:15:47;14.20;;;3.90;;
36995;SDS011;22905;50.340;10.776;2023-02-01T16:20:47;12.63;;;5.85;;
36995;SDS011;22905;50.340;10.776;2023-02-01T16:25:48;19.80;;;6.20;;
36995;SDS011;22905;50.340;10.776;2023-02-01T16:30:48;14.68;;;5.45;;
36995;SDS011;22905;50.340;10.776;2023-02-01T16:35:49;16.50;;;4.90;;
36995;SDS011;22905;50.340;10.776;2023-02-01T16:40:50;16.17;;;4.85;;
36995;SDS011;22905;50.340;10.776;2023-02-01T16:45:51;16.05;;;6.22;;
36995;SDS011;22905;50.340;10.776;2023-02-01T16:50:53;11.60;;;4.63;;
36995;SDS011;22905;50.340;10.776;2023-02-01T16:55:54;9.50;;;4.10;;
36995;SDS011;22905;50.340;10.776;2023-02-01T17:00:57;12.85;;;4.72;;
36995;SDS011;22905;50.340;10.776;2023-02-01T17:05:57;15.30;;;4.40;;
36995;SDS011;22905;50.340;10.776;2023-02-01T17:10:58;10.52;;;4.78;;
36995;SDS011;22905;50.340;10.776;2023-02-01T17:16:02;11.37;;;4.37;;
36995;SDS011;22905;50.340;10.776;2023-02-01T17:21:04;22.25;;;4.90;;
36995;SDS011;22905;50.340;10.776;2023-02-01T17:26:08;10.07;;;5.05;;
36995;SDS011;22905;50.340;10.776;2023-02-01T17:31:11;13.70;;;3.97;;
36995;SDS011;22905;50.340;10.776;2023-02-01T17:36:14;20.17;;;4.47;;
36995;SDS011;22905;50.340;10.776;2023-02-01T17:41:15;32.93;;;12.70;;
36995;SDS011;22905;50.340;10.776;2023-02-01T17:46:16;19.02;;;7.25;;
36995;SDS011;22905;50.340;10.776;2023-02-01T17:51:26;23.95;;;6.65;;
36995;SDS011;22905;50.340;10.776;2023-02-01T17:56:27;16.60;;;6.25;;
36995;SDS011;22905;50.340;10.776;2023-02-01T18:01:27;32.10;;;8.35;;
36995;SDS011;22905;50.340;10.776;2023-02-01T18:06:27;11.23;;;5.18;;
36995;SDS011;22905;50.340;10.776;2023-02-01T18:11:32;31.05;;;8.40;;
36995;SDS011;22905;50.340;10.776;2023-02-01T18:16:33;19.67;;;6.25;;
36995;SDS011;22905;50.340;10.776;2023-02-01T18:21:37;14.23;;;4.93;;
36995;SDS011;22905;50.340;10.776;2023-02-01T18:26:39;18.05;;;7.80;;
36995;SDS011;22905;50.340;10.776;2023-02-01T18:31:43;9.00;;;5.22;;
36995;SDS011;22905;50.340;10.776;2023-02-01T18:36:44;25.52;;;6.30;;
36995;SDS011;22905;50.340;10.776;2023-02-01T18:41:45;13.25;;;4.15;;
36995;SDS011;22905;50.340;10.776;2023-02-01T18:46:45;30.77;;;9.23;;
36995;SDS011;22905;50.340;10.776;2023-02-01T18:51:46;15.40;;;4.75;;
36995;SDS011;22905;50.340;10.776;2023-02-01T18:56:46;12.70;;;5.63;;
36995;SDS011;22905;50.340;10.776;2023-02-01T19:01:46;29.13;;;7.45;;
36995;SDS011;22905;50.340;10.776;2023-02-01T19:06:46;16.92;;;6.10;;
36995;SDS011;22905;50.340;10.776;2023-02-01T19:11:47;25.52;;;7.07;;
36995;SDS011;22905;50.340;10.776;2023-02-01T19:16:48;14.90;;;4.88;;
36995;SDS011;22905;50.340;10.776;2023-02-01T19:21:49;13.65;;;4.32;;
36995;SDS011;22905;50.340;10.776;2023-02-01T19:26:49;13.57;;;6.05;;
36995;SDS011;22905;50.340;10.776;2023-02-01T19:31:50;14.18;;;3.78;;
36995;SDS011;22905;50.340;10.776;2023-02-01T19:36:50;19.38;;;4.60;;
36995;SDS011;22905;50.340;10.776;2023-02-01T19:41:51;25.05;;;7.20;;
36995;SDS011;22905;50.340;10.776;2023-02-01T19:46:51;29.42;;;9.80;;
36995;SDS011;22905;50.340;10.776;2023-02-01T19:51:52;19.25;;;6.53;;
36995;SDS011;22905;50.340;10.776;2023-02-01T19:56:52;8.00;;;3.83;;
36995;SDS011;22905;50.340;10.776;2023-02-01T20:01:52;9.52;;;3.80;;
36995;SDS011;22905;50.340;10.776;2023-02-01T20:06:53;12.73;;;4.97;;
36995;SDS011;22905;50.340;10.776;2023-02-01T20:11:54;9.27;;;2.95;;
36995;SDS011;22905;50.340;10.776;2023-02-01T20:16:55;15.20;;;4.22;;
36995;SDS011;22905;50.340;10.776;2023-02-01T20:21:56;9.95;;;4.55;;
36995;SDS011;22905;50.340;10.776;2023-02-01T20:26:56;11.00;;;3.38;;
36995;SDS011;22905;50.340;10.776;2023-02-01T20:31:56;7.75;;;3.70;;
36995;SDS011;22905;50.340;10.776;2023-02-01T20:36:57;5.70;;;3.40;;
36995;SDS011;22905;50.340;10.776;2023-02-01T20:41:57;9.38;;;3.67;;
36995;SDS011;22905;50.340;10.776;2023-02-01T20:46:58;8.43;;;3.83;;
36995;SDS011;22905;50.340;10.776;2023-02-01T20:51:58;13.10;;;3.83;;
36995;SDS011;22905;50.340;10.776;2023-02-01T20:56:59;11.70;;;3.63;;
36995;SDS011;22905;50.340;10.776;2023-02-01T21:01:59;8.15;;;3.63;;
36995;SDS011;22905;50.340;10.776;2023-02-01T21:07:00;6.95;;;4.13;;
36995;SDS011;22905;50.340;10.776;2023-02-01T21:12:02;13.48;;;5.63;;
36995;SDS011;22905;50.340;10.776;2023-02-01T21:17:02;9.45;;;4.93;;
36995;SDS011;22905;50.340;10.776;2023-02-01T21:22:02;7.10;;;2.47;;
36995;SDS011;22905;50.340;10.776;2023-02-01T21:27:03;3.28;;;1.85;;
36995;SDS011;22905;50.340;10.776;2023-02-01T21:32:04;3.17;;;2.72;;
36995;SDS011;22905;50.340;10.776;2023-02-01T21:37:05;3.30;;;2.07;;
36995;SDS011;22905;50.340;10.776;2023-02-01T21:42:07;2.30;;;1.52;;
36995;SDS011;22905;50.340;10.776;2023-02-01T21:47:17;3.78;;;1.45;;
36995;SDS011;22905;50.340;10.776;2023-02-01T21:52:19;2.65;;;1.42;;
36995;SDS011;22905;50.340;10.776;2023-02-01T21:57:19;2.75;;;1.35;;
36995;SDS011;22905;50.340;10.776;2023-02-01T22:02:19;2.20;;;1.58;;
36995;SDS011;22905;50.340;10.776;2023-02-01T22:07:19;1.90;;;1.30;;
36995;SDS011;22905;50.340;10.776;2023-02-01T22:12:20;1.98;;;1.50;;
36995;SDS011;22905;50.340;10.776;2023-02-01T22:17:21;1.83;;;1.20;;
36995;SDS011;22905;50.340;10.776;2023-02-01T22:22:22;1.05;;;0.90;;
36995;SDS011;22905;50.340;10.776;2023-02-01T22:27:22;1.42;;;1.10;;
36995;SDS011;22905;50.340;10.776;2023-02-01T22:32:22;0.60;;;0.60;;
36995;SDS011;22905;50.340;10.776;2023-02-01T22:37:23;3.25;;;1.33;;
36995;SDS011;22905;50.340;10.776;2023-02-01T22:42:23;1.38;;;1.00;;
36995;SDS011;22905;50.340;10.776;2023-02-01T22:47:23;2.33;;;1.25;;
36995;SDS011;22905;50.340;10.776;2023-02-01T22:52:24;0.80;;;0.80;;
36995;SDS011;22905;50.340;10.776;2023-02-01T22:57:24;3.78;;;1.73;;
36995;SDS011;22905;50.340;10.776;2023-02-01T23:02:24;2.07;;;1.20;;
36995;SDS011;22905;50.340;10.776;2023-02-01T23:07:25;13.15;;;2.67;;
36995;SDS011;22905;50.340;10.776;2023-02-01T23:12:25;2.17;;;1.20;;
36995;SDS011;22905;50.340;10.776;2023-02-01T23:17:25;4.82;;;1.60;;
36995;SDS011;22905;50.340;10.776;2023-02-01T23:22:26;8.25;;;2.47;;
36995;SDS011;22905;50.340;10.776;2023-02-01T23:27:26;2.57;;;1.20;;
36995;SDS011;22905;50.340;10.776;2023-02-01T23:32:26;3.30;;;2.03;;
36995;SDS011;22905;50.340;10.776;2023-02-01T23:37:27;3.72;;;1.35;;
36995;SDS011;22905;50.340;10.776;2023-02-01T23:42:27;2.05;;;1.00;;
36995;SDS011;22905;50.340;10.776;2023-02-01T23:47:28;2.97;;;1.13;;
36995;SDS011;22905;50.340;10.776;2023-02-01T23:52:28;1.02;;;1.02;;
36995;SDS011;22905;50.340;10.776;2023-02-01T23:57:28;8.80;;;1.83;;
